This is the latest recevied weather packets stored in our database for station/object WC0AA. If no packets are shown the sender has not sent any weather packets the latest 10 day(s).
| Time | Temp. | Humidity | Pressure | Rain* | Wind** | Luminosity | Snow |
|---|---|---|---|---|---|---|---|
| 1777647005 | 14.44° C | 52% | 1019 hPa | 0 mm | - | - | - |
| 1777644604 | 11.67° C | 65% | 1019 hPa | 0 mm | - | - | - |
| 1777642805 | 9.44° C | 73% | 1019.2 hPa | 0 mm | - | - | - |
| 1777636204 | 1.67° C | 100% | 1018.7 hPa | 0 mm | - | - | - |
| 1777635604 | 1.67° C | 100% | 1018.5 hPa | 0 mm | - | - | - |
| 1777631404 | 1.67° C | 100% | 1018.7 hPa | 0 mm | - | - | - |
| 1777629604 | 1.11° C | 100% | 1018.6 hPa | 0 mm | - | - | - |
| 1777621204 | 1.67° C | 100% | 1019.5 hPa | 0 mm | - | - | - |
| 1777619404 | 1.67° C | 95% | 1019.7 hPa | 0 mm | - | - | - |
| 1777615204 | 3.33° C | 92% | 1020.2 hPa | 0 mm | - | - | - |
| 1777610404 | 6.11° C | 77% | 1019.9 hPa | 0 mm | - | - | - |
| 1777608004 | 7.22° C | 73% | 1019.9 hPa | 0 mm | - | - | - |
| 1777603804 | 9.44° C | 63% | 1019.4 hPa | 0 mm | - | - | - |
| 1777600805 | 10.56° C | 59% | 1018.6 hPa | 0 mm | - | - | - |
| 1777596004 | 13.33° C | 52% | 1017.6 hPa | 0 mm | - | - | - |
| 1777587605 | 16.67° C | 40% | 1017.2 hPa | 0 mm | - | - | - |
| 1777572604 | 18.89° C | 44% | 1017.6 hPa | 0 mm | - | - | - |
| 1777569605 | 20.56° C | 40% | 1018.1 hPa | 0 mm | - | - | - |
| 1777548004 | 6.11° C | 95% | 1018.2 hPa | 0 mm | - | - | - |
| 1777546805 | 6.67° C | 94% | 1018.1 hPa | 0 mm | - | - | - |
| 1777545005 | 6.67° C | 94% | 1018.3 hPa | 0 mm | - | - | - |
| 1777544405 | 6.67° C | 95% | 1018.4 hPa | 0 mm | - | - | - |
| 1777537804 | 7.22° C | 91% | 1017.9 hPa | 0 mm | - | - | - |
| 1777535405 | 8.33° C | 85% | 1018.1 hPa | 0 mm | - | - | - |
| 1777534205 | 8.89° C | 85% | 1018.5 hPa | 0 mm | - | - | - |
* Rain latest hour (hover to see other rain measurements)
** Current wind speed in m/s (hover to see current wind gust speed)